Long Point, Illinois
Current Conditions -  °F | °C
As of 10:35 PM on Thursday 18 Dec 2014 (Local Time) from KPNT Reporting Station
Clear Clear  
Wind Chill: 22°   Ceiling: Unl
Heat Index: 22°   Visibility: 10mi
Dew Point: 19°   Wind: 3mph
Humidity: 89%   Direction: 270°W
Pressure: 30.3"   Gusts: NA
Location:  41°N, 88.89°W
Report Text: KPNT 190435Z AUTO 27003KT 10SM CLR M06/M07 A3030 RMK AO2 T10581073
Loading
Personal Weather Stations






























Interactive Weather Map New forecast layout! Learn more

10-Day Weather Forecast

Advertisements
Track Severe Weather on mobile